createdAt,value
2019-05-14T00:00:14.313Z,69.4957
2019-05-14T00:01:17.244Z,69.1447
2019-05-14T00:02:21.402Z,68.9921
2019-05-14T00:03:24.292Z,69.2348
2019-05-14T00:04:27.332Z,68.8746
2019-05-14T00:05:32.196Z,68.4794
2019-05-14T00:06:34.287Z,68.3665
2019-05-14T00:07:37.303Z,67.9347
2019-05-14T00:08:41.804Z,67.6966
2019-05-14T00:09:45.343Z,67.8294
2019-05-14T00:10:48.262Z,67.5059
2019-05-14T00:11:51.412Z,67.3274
2019-05-14T00:12:54.270Z,67.3075
2019-05-14T00:13:57.309Z,66.8772
2019-05-14T00:15:02.134Z,66.5660
2019-05-14T00:16:05.308Z,66.6270
2019-05-14T00:17:08.307Z,66.5019
2019-05-14T00:18:11.727Z,66.2730
2019-05-14T00:19:15.304Z,66.0777
2019-05-14T00:20:18.329Z,65.6886
2019-05-14T00:21:21.295Z,65.5589
2019-05-14T00:22:24.274Z,65.2811
2019-05-14T00:23:27.297Z,65.4093
2019-05-14T00:24:32.254Z,65.4368
2019-05-14T00:25:35.342Z,65.3452
2019-05-14T00:26:39.342Z,64.9653
2019-05-14T00:27:42.294Z,65.3407
2019-05-14T00:28:45.288Z,64.8356
2019-05-14T00:29:48.317Z,64.7547
2019-05-14T00:30:52.379Z,64.4327
2019-05-14T00:31:55.286Z,64.9912
2019-05-14T00:32:58.354Z,64.9409
2019-05-14T00:34:01.734Z,65.0416
2019-05-14T00:35:05.319Z,64.8646
2019-05-14T00:36:08.274Z,64.8280
2019-05-14T00:37:11.684Z,64.9470
2019-05-14T00:38:14.293Z,64.9149
2019-05-14T00:39:16.340Z,64.9088
2019-05-14T00:40:19.351Z,64.9516
2019-05-14T00:41:23.342Z,65.1331
2019-05-14T00:42:26.325Z,65.2125
2019-05-14T00:43:29.290Z,65.0568
2019-05-14T00:44:32.558Z,65.1621
2019-05-14T00:45:35.347Z,65.3956
2019-05-14T00:46:38.319Z,65.3071
2019-05-14T00:47:41.917Z,65.5146
2019-05-14T00:48:45.261Z,65.8946
2019-05-14T00:49:48.354Z,65.7481
2019-05-14T00:50:51.778Z,65.9480
2019-05-14T00:51:55.295Z,65.7786
2019-05-14T00:52:58.303Z,65.8305
2019-05-14T00:54:01.701Z,65.5772
2019-05-14T00:55:05.274Z,65.8900
2019-05-14T00:56:08.356Z,66.1173
2019-05-14T00:57:11.836Z,66.3752
2019-05-14T00:58:16.285Z,66.3096
2019-05-14T00:59:21.520Z,66.5385
2019-05-14T01:00:23.274Z,66.8605
2019-05-14T01:01:26.344Z,66.6896
2019-05-14T01:02:29.271Z,66.6072
2019-05-14T01:03:32.610Z,66.5476
2019-05-14T01:04:35.278Z,66.6941
2019-05-14T01:05:38.283Z,66.6865
2019-05-14T01:06:42.033Z,66.6941
2019-05-14T01:07:45.317Z,66.8238
2019-05-14T01:08:47.348Z,66.8330
2019-05-14T01:09:52.397Z,66.7094
2019-05-14T01:10:55.329Z,66.6636
2019-05-14T01:11:58.301Z,66.5064
2019-05-14T01:13:01.437Z,66.4744
2019-05-14T01:14:04.308Z,66.7399
2019-05-14T01:15:10.745Z,66.8406
2019-05-14T01:16:15.327Z,66.6133
2019-05-14T01:17:18.330Z,66.9474
2019-05-14T01:18:21.888Z,67.0695
2019-05-14T01:19:25.293Z,66.9230
2019-05-14T01:20:27.328Z,66.9383
2019-05-14T01:21:31.218Z,67.1611
2019-05-14T01:22:34.307Z,67.0161
2019-05-14T01:23:37.307Z,67.1168
2019-05-14T01:24:41.719Z,66.8055
2019-05-14T01:25:47.317Z,66.9703
2019-05-14T01:26:52.250Z,66.7124
2019-05-14T01:27:55.291Z,66.7491
2019-05-14T01:28:58.277Z,66.5995
2019-05-14T01:30:02.039Z,66.8605
2019-05-14T01:31:05.296Z,66.5537
2019-05-14T01:32:08.332Z,66.9734
2019-05-14T01:33:11.874Z,66.8544
2019-05-14T01:34:15.318Z,67.0527
2019-05-14T01:35:18.278Z,66.9108
2019-05-14T01:36:21.577Z,66.7277
2019-05-14T01:37:24.278Z,66.8009
2019-05-14T01:38:27.323Z,66.9612
2019-05-14T01:39:32.093Z,67.3365
2019-05-14T01:40:35.279Z,66.9841
2019-05-14T01:41:38.325Z,66.6163
2019-05-14T01:42:41.741Z,66.4256
2019-05-14T01:43:45.299Z,66.7079
2019-05-14T01:44:48.278Z,66.5797
2019-05-14T01:45:52.454Z,66.3798
2019-05-14T01:46:55.261Z,65.6870
2019-05-14T01:47:58.307Z,65.5558
2019-05-14T01:49:01.659Z,65.5451
2019-05-14T01:50:04.286Z,65.7664
2019-05-14T01:51:07.338Z,65.6062
2019-05-14T01:52:11.277Z,65.6504
2019-05-14T01:53:14.318Z,65.6138
2019-05-14T01:54:17.284Z,65.7603
2019-05-14T01:55:21.905Z,65.4215
2019-05-14T01:56:25.316Z,65.6931
2019-05-14T01:57:28.317Z,65.7298
2019-05-14T01:58:31.358Z,65.4627
2019-05-14T01:59:34.293Z,65.5604
2019-05-14T02:00:37.318Z,65.8991
2019-05-14T02:01:41.503Z,64.0452
2019-05-14T02:02:44.314Z,63.8758
2019-05-14T02:03:47.274Z,64.4648
2019-05-14T02:04:51.330Z,64.6906
2019-05-14T02:05:54.304Z,64.8035
2019-05-14T02:06:57.328Z,64.7547
2019-05-14T02:08:01.714Z,64.2359
2019-05-14T02:09:05.290Z,64.6494
2019-05-14T02:10:08.296Z,64.4663
2019-05-14T02:11:12.121Z,64.1642
2019-05-14T02:12:15.381Z,63.2578
2019-05-14T02:13:18.268Z,63.5905
2019-05-14T02:14:22.030Z,62.9419
2019-05-14T02:15:36.305Z,62.4292
2019-05-14T02:16:33.279Z,61.5778
2019-05-14T02:17:36.281Z,61.9425
2019-05-14T02:18:41.457Z,62.0447
2019-05-14T02:19:44.274Z,61.4527
2019-05-14T02:20:47.275Z,61.8433
2019-05-14T02:21:51.436Z,61.9715
2019-05-14T02:22:54.259Z,61.5854
2019-05-14T02:23:56.311Z,61.3260
2019-05-14T02:24:59.264Z,61.7273
2019-05-14T02:26:02.690Z,61.3809
2019-05-14T02:27:06.315Z,61.4984
2019-05-14T02:28:11.414Z,61.2879
2019-05-14T02:29:14.284Z,61.8296
2019-05-14T02:30:20.282Z,61.8524
2019-05-14T02:31:25.288Z,61.6953
2019-05-14T02:32:29.753Z,61.9028
2019-05-14T02:33:33.310Z,62.2370
2019-05-14T02:34:39.459Z,62.5010
2019-05-14T02:35:43.323Z,62.4796
2019-05-14T02:36:49.425Z,62.6429
2019-05-14T02:37:52.337Z,63.0930
2019-05-14T02:38:55.291Z,62.9725
2019-05-14T02:39:59.667Z,62.6978
2019-05-14T02:41:03.317Z,61.8021
2019-05-14T02:42:09.570Z,62.1866
2019-05-14T02:43:13.313Z,61.9715
2019-05-14T02:44:18.881Z,62.0630
2019-05-14T02:45:21.272Z,62.2461
2019-05-14T02:46:24.339Z,62.5834
2019-05-14T02:47:29.885Z,62.7070
2019-05-14T02:48:33.401Z,62.3178
2019-05-14T02:49:39.340Z,63.0518
2019-05-14T02:50:43.285Z,62.8962
2019-05-14T02:51:50.070Z,62.8122
2019-05-14T02:52:53.348Z,62.6764
2019-05-14T02:53:58.919Z,63.3295
2019-05-14T02:55:02.297Z,63.4806
2019-05-14T02:56:05.313Z,63.1556
2019-05-14T02:57:10.378Z,63.1693
2019-05-14T02:58:14.329Z,62.7710
2019-05-14T02:59:19.599Z,62.9419
2019-05-14T03:00:23.305Z,62.9862
2019-05-14T03:01:26.285Z,63.1464
2019-05-14T03:02:29.808Z,63.3768
2019-05-14T03:03:33.302Z,63.3753
2019-05-14T03:04:39.181Z,63.1327
2019-05-14T03:05:42.300Z,63.2120
2019-05-14T03:06:45.317Z,63.3951
2019-05-14T03:07:49.989Z,63.2624
2019-05-14T03:08:53.343Z,63.1617
2019-05-14T03:09:59.194Z,63.3494
2019-05-14T03:11:01.330Z,63.1464
2019-05-14T03:12:04.291Z,63.6408
2019-05-14T03:13:09.493Z,63.4028
2019-05-14T03:14:12.319Z,63.7919
2019-05-14T03:15:15.308Z,63.9887
2019-05-14T03:16:26.036Z,64.4160
2019-05-14T03:17:29.768Z,64.8508
2019-05-14T03:18:33.370Z,64.8737
2019-05-14T03:19:36.275Z,64.8219
2019-05-14T03:20:39.019Z,65.0187
2019-05-14T03:21:42.303Z,64.8631
2019-05-14T03:23:01.365Z,64.8402
2019-05-14T03:23:53.326Z,64.9104
2019-05-14T03:24:59.621Z,64.8447
2019-05-14T03:26:03.312Z,65.1789
2019-05-14T03:27:09.322Z,65.5558
2019-05-14T03:28:13.327Z,65.4032
2019-05-14T03:29:19.351Z,65.5924
2019-05-14T03:30:23.498Z,65.4353
2019-05-14T03:31:32.255Z,65.3300
2019-05-14T03:32:34.297Z,65.4765
2019-05-14T03:33:43.010Z,65.4353
2019-05-14T03:34:45.305Z,65.9037
2019-05-14T03:35:56.360Z,66.1234
2019-05-14T03:37:02.367Z,66.2638
2019-05-14T03:38:04.315Z,65.8442
2019-05-14T03:39:10.251Z,66.3874
2019-05-14T03:40:13.297Z,66.3706
2019-05-14T03:41:19.429Z,66.7857
2019-05-14T03:42:22.271Z,67.0619
2019-05-14T03:43:25.332Z,67.2435
2019-05-14T03:44:29.112Z,67.6936
2019-05-14T03:45:32.339Z,67.8981
2019-05-14T03:46:45.678Z,67.7439
2019-05-14T03:47:43.309Z,67.9255
2019-05-14T03:48:49.038Z,67.7760
2019-05-14T03:49:52.284Z,67.8569
2019-05-14T03:50:55.313Z,68.1331
2019-05-14T03:52:00.452Z,67.7287
2019-05-14T03:53:03.318Z,67.9164
2019-05-14T03:54:11.390Z,68.4016
2019-05-14T03:55:14.281Z,68.7678
2019-05-14T03:56:19.237Z,68.7785
2019-05-14T03:57:22.286Z,68.7831
2019-05-14T03:58:25.298Z,69.2271
2019-05-14T03:59:29.307Z,69.1890
2019-05-14T04:00:32.290Z,68.7511
2019-05-14T04:01:35.275Z,68.8655
2019-05-14T04:02:39.116Z,68.8655
2019-05-14T04:03:42.313Z,68.8838
2019-05-14T04:04:45.308Z,69.2409
2019-05-14T04:05:49.382Z,69.4926
2019-05-14T04:06:52.305Z,69.7948
2019-05-14T04:07:55.307Z,69.8344
2019-05-14T04:09:00.626Z,70.0862
2019-05-14T04:10:04.287Z,70.2022
2019-05-14T04:11:09.624Z,70.1427
2019-05-14T04:12:13.297Z,69.7978
2019-05-14T04:13:19.585Z,69.9413
2019-05-14T04:14:23.296Z,69.9992
2019-05-14T04:15:29.643Z,70.4799
2019-05-14T04:16:33.332Z,70.0923
2019-05-14T04:17:38.783Z,70.4585
2019-05-14T04:18:44.326Z,70.0359
2019-05-14T04:19:49.270Z,70.0603
2019-05-14T04:20:52.300Z,70.1289
2019-05-14T04:21:55.313Z,70.0725
2019-05-14T04:23:00.006Z,70.0877
2019-05-14T04:24:03.330Z,69.8772
2019-05-14T04:25:06.300Z,70.0542
2019-05-14T04:26:09.584Z,70.1503
2019-05-14T04:27:13.126Z,70.1503
2019-05-14T04:28:19.288Z,70.3166
2019-05-14T04:29:22.291Z,70.5089
2019-05-14T04:30:25.327Z,70.2251
2019-05-14T04:31:29.831Z,70.1686
2019-05-14T04:32:33.413Z,70.4158
2019-05-14T04:33:39.051Z,70.1640
2019-05-14T04:34:41.305Z,70.3578
2019-05-14T04:35:44.274Z,70.3075
2019-05-14T04:36:50.076Z,70.3197
2019-05-14T04:37:53.287Z,70.2709
2019-05-14T04:38:56.299Z,70.3395
2019-05-14T04:39:59.470Z,70.0954
2019-05-14T04:41:02.312Z,70.1824
2019-05-14T04:42:05.310Z,70.6371
2019-05-14T04:43:10.153Z,70.5486
2019-05-14T04:44:13.331Z,70.4021
2019-05-14T04:45:19.414Z,70.5684
2019-05-14T04:46:22.289Z,70.6050
2019-05-14T04:47:31.862Z,70.2342
2019-05-14T04:48:37.596Z,70.4036
2019-05-14T04:49:41.378Z,70.3517
2019-05-14T04:50:44.292Z,70.2754
2019-05-14T04:51:50.180Z,70.2235
2019-05-14T04:52:53.281Z,70.3929
2019-05-14T04:53:59.613Z,70.4631
2019-05-14T04:55:03.324Z,70.4112
2019-05-14T04:56:08.732Z,70.5714
2019-05-14T04:57:12.296Z,70.5257
2019-05-14T04:58:15.322Z,70.0679
2019-05-14T04:59:19.135Z,69.9168
2019-05-14T05:00:22.299Z,69.9443
2019-05-14T05:01:25.359Z,69.9916
2019-05-14T05:02:30.110Z,69.9626
2019-05-14T05:03:33.286Z,70.1549
2019-05-14T05:04:36.301Z,69.8589
2019-05-14T05:05:39.531Z,69.9443
2019-05-14T05:06:42.318Z,69.5415
2019-05-14T05:07:45.326Z,69.3675
2019-05-14T05:08:49.806Z,69.3492
2019-05-14T05:09:53.319Z,69.5003
2019-05-14T05:10:59.658Z,68.9509
2019-05-14T05:12:03.317Z,68.9799
2019-05-14T05:13:09.031Z,68.8975
2019-05-14T05:14:12.308Z,68.3558
2019-05-14T05:15:14.329Z,68.1636
2019-05-14T05:16:19.224Z,68.0735
2019-05-14T05:17:38.920Z,68.2933
2019-05-14T05:18:32.302Z,68.0644
2019-05-14T05:19:35.354Z,67.5929
2019-05-14T05:20:39.444Z,68.2338
2019-05-14T05:21:42.287Z,67.7424
2019-05-14T05:22:45.299Z,67.4372
2019-05-14T05:23:49.221Z,67.5135
2019-05-14T05:24:52.361Z,67.7974
2019-05-14T05:25:55.299Z,67.5776
2019-05-14T05:26:58.619Z,67.7439
2019-05-14T05:28:01.303Z,67.6478
2019-05-14T05:29:07.208Z,67.4174
2019-05-14T05:30:12.339Z,66.8742
2019-05-14T05:31:15.305Z,66.1585
2019-05-14T05:32:19.412Z,66.0441
2019-05-14T05:33:23.305Z,66.9245
2019-05-14T05:34:28.288Z,66.5110
2019-05-14T05:35:31.311Z,66.4103
2019-05-14T05:36:34.300Z,66.2654
2019-05-14T05:37:38.447Z,65.7252
2019-05-14T05:38:42.310Z,64.7410
2019-05-14T05:39:45.308Z,64.2954
2019-05-14T05:40:48.685Z,63.8422
2019-05-14T05:41:51.311Z,63.5126
2019-05-14T05:42:54.300Z,62.6291
2019-05-14T05:43:58.915Z,62.3377
2019-05-14T05:45:02.303Z,62.1271
2019-05-14T05:46:05.329Z,62.2370
2019-05-14T05:47:09.269Z,62.2187
2019-05-14T05:48:12.303Z,61.7609
2019-05-14T05:49:15.288Z,61.7090
2019-05-14T05:50:19.379Z,61.7151
2019-05-14T05:51:23.332Z,61.1795
2019-05-14T05:52:28.239Z,61.1887
2019-05-14T05:53:31.275Z,60.2502
2019-05-14T05:54:34.291Z,59.3210
2019-05-14T05:55:39.275Z,59.9008
2019-05-14T05:56:42.358Z,61.3016
2019-05-14T05:57:45.334Z,61.8006
2019-05-14T05:58:48.952Z,62.2950
2019-05-14T05:59:52.309Z,62.4689
2019-05-14T06:00:55.287Z,62.7161
2019-05-14T06:01:58.800Z,63.1922
2019-05-14T06:03:02.310Z,63.4302
2019-05-14T06:04:05.295Z,63.2303
2019-05-14T06:05:08.334Z,62.6154
2019-05-14T06:06:13.388Z,61.5076
2019-05-14T06:07:18.392Z,61.1246
2019-05-14T06:08:21.304Z,60.2487
2019-05-14T06:09:24.334Z,60.6241
2019-05-14T06:10:29.179Z,59.5987
2019-05-14T06:11:32.322Z,60.1892
2019-05-14T06:12:34.339Z,60.6256
2019-05-14T06:13:39.016Z,61.7548
2019-05-14T06:14:42.281Z,61.9303
2019-05-14T06:15:48.818Z,61.4633
2019-05-14T06:16:53.321Z,61.6953
2019-05-14T06:18:13.359Z,61.8875
2019-05-14T06:19:08.201Z,62.1485
2019-05-14T06:20:11.292Z,61.6556
2019-05-14T06:21:14.303Z,60.9812
2019-05-14T06:22:18.924Z,60.6699
2019-05-14T06:23:22.351Z,59.9985
2019-05-14T06:24:25.319Z,59.3256
2019-05-14T06:25:31.336Z,58.2712
2019-05-14T06:26:34.317Z,58.2406
2019-05-14T06:27:38.070Z,58.6938
2019-05-14T06:28:41.141Z,59.1150
2019-05-14T06:29:44.278Z,58.6206
2019-05-14T06:30:48.413Z,58.5412
2019-05-14T06:31:51.292Z,58.7930
2019-05-14T06:32:54.351Z,58.7716
2019-05-14T06:33:59.109Z,58.6206
2019-05-14T06:35:02.333Z,58.6114
2019-05-14T06:36:08.716Z,59.2340
2019-05-14T06:37:12.336Z,59.1241
2019-05-14T06:38:15.314Z,58.9578
2019-05-14T06:39:18.419Z,58.7839
2019-05-14T06:40:21.344Z,58.6023
2019-05-14T06:41:24.294Z,58.6114
2019-05-14T06:42:28.507Z,57.2549
2019-05-14T06:43:32.350Z,57.3648
2019-05-14T06:44:35.305Z,56.8399
2019-05-14T06:45:39.143Z,57.4029
2019-05-14T06:46:43.356Z,57.4105
2019-05-14T06:47:48.621Z,57.5067
2019-05-14T06:48:52.362Z,58.7213
2019-05-14T06:49:55.303Z,59.0143
2019-05-14T06:50:58.536Z,59.6094
2019-05-14T06:52:01.312Z,58.4955
2019-05-14T06:53:04.295Z,58.7716
2019-05-14T06:54:09.206Z,58.8388
2019-05-14T06:55:12.295Z,58.4741
2019-05-14T06:56:18.802Z,57.9431
2019-05-14T06:57:23.278Z,58.4466
2019-05-14T06:58:26.304Z,58.4192
2019-05-14T06:59:29.357Z,57.6532
2019-05-14T07:00:31.348Z,57.6715
2019-05-14T07:01:34.317Z,57.7447
2019-05-14T07:02:43.240Z,57.3510
2019-05-14T07:03:45.337Z,57.3373
2019-05-14T07:04:48.541Z,57.4304
2019-05-14T07:05:51.319Z,57.1557
2019-05-14T07:06:54.298Z,57.6410
2019-05-14T07:07:59.704Z,58.3368
2019-05-14T07:09:03.300Z,58.0072
2019-05-14T07:10:08.739Z,57.4197
2019-05-14T07:11:12.252Z,57.0459
2019-05-14T07:12:15.331Z,57.9705
2019-05-14T07:13:18.939Z,58.1155
2019-05-14T07:14:21.302Z,58.7518
2019-05-14T07:15:24.336Z,57.0962
2019-05-14T07:16:28.682Z,56.3165
2019-05-14T07:17:32.302Z,56.8063
2019-05-14T07:18:46.398Z,57.5036
2019-05-14T07:19:43.351Z,56.7987
2019-05-14T07:20:48.359Z,56.2890
2019-05-14T07:21:51.314Z,56.3500
2019-05-14T07:22:54.308Z,56.2112
2019-05-14T07:23:56.317Z,55.6435
2019-05-14T07:24:59.328Z,56.4050
2019-05-14T07:26:02.292Z,56.6522
2019-05-14T07:27:05.324Z,55.7031
2019-05-14T07:28:08.860Z,55.0805
2019-05-14T07:29:12.312Z,56.0067
2019-05-14T07:30:15.323Z,55.3933
2019-05-14T07:31:18.793Z,55.5947
2019-05-14T07:32:22.284Z,55.4070
2019-05-14T07:33:25.510Z,55.3002
2019-05-14T07:34:28.440Z,56.1013
2019-05-14T07:35:31.327Z,57.0718
2019-05-14T07:36:34.339Z,55.0957
2019-05-14T07:37:39.703Z,55.8190
2019-05-14T07:38:43.327Z,55.4421
2019-05-14T07:39:48.506Z,56.2768
2019-05-14T07:40:52.343Z,55.8373
2019-05-14T07:41:55.282Z,56.0021
2019-05-14T07:42:58.430Z,54.5586
2019-05-14T07:44:01.297Z,52.5643
2019-05-14T07:45:04.300Z,52.9305
2019-05-14T07:46:08.515Z,53.4478
2019-05-14T07:47:12.319Z,52.7916
2019-05-14T07:48:15.318Z,52.5231
2019-05-14T07:49:18.567Z,53.3425
2019-05-14T07:50:21.362Z,53.0953
2019-05-14T07:51:24.303Z,52.8527
2019-05-14T07:52:28.517Z,52.2484
2019-05-14T07:53:38.793Z,52.3079
2019-05-14T07:54:40.299Z,52.6513
2019-05-14T07:55:43.360Z,52.8923
2019-05-14T07:56:49.075Z,53.1136
2019-05-14T07:57:54.294Z,53.6629
2019-05-14T07:58:58.468Z,53.9132
2019-05-14T08:00:03.328Z,53.8094
2019-05-14T08:01:06.325Z,52.6955
2019-05-14T08:02:09.517Z,51.9142
2019-05-14T08:03:12.291Z,52.2026
2019-05-14T08:04:17.217Z,51.0704
2019-05-14T08:05:22.310Z,51.9921
2019-05-14T08:06:24.388Z,52.3812
2019-05-14T08:07:28.180Z,51.8868
2019-05-14T08:08:31.291Z,52.2560
2019-05-14T08:09:34.300Z,52.4681
2019-05-14T08:10:36.328Z,52.3720
2019-05-14T08:11:38.865Z,50.7774
2019-05-14T08:12:42.325Z,50.0603
2019-05-14T08:13:45.345Z,49.4682
2019-05-14T08:15:09.032Z,50.1823
2019-05-14T08:15:55.323Z,49.9077
2019-05-14T08:16:59.554Z,49.3034
2019-05-14T08:18:03.293Z,49.5338
2019-05-14T08:19:20.885Z,49.7887
2019-05-14T08:20:14.337Z,49.3721
2019-05-14T08:21:19.351Z,49.5064
2019-05-14T08:22:23.337Z,49.5048
2019-05-14T08:23:28.207Z,48.0858
2019-05-14T08:24:31.286Z,48.3803
2019-05-14T08:25:34.315Z,47.5685
2019-05-14T08:26:38.181Z,47.9942
2019-05-14T08:27:41.367Z,46.8452
2019-05-14T08:28:44.284Z,45.3483
2019-05-14T08:29:48.703Z,44.4648
2019-05-14T08:30:52.302Z,43.3433
2019-05-14T08:31:55.337Z,42.7802
2019-05-14T08:32:58.419Z,42.4643
2019-05-14T08:34:04.633Z,43.7659
2019-05-14T08:35:09.082Z,41.6281
2019-05-14T08:36:12.295Z,42.7024
2019-05-14T08:37:15.292Z,41.7182
2019-05-14T08:38:18.539Z,40.8988
2019-05-14T08:39:22.258Z,41.7563
2019-05-14T08:40:25.324Z,41.5457
2019-05-14T08:41:28.780Z,40.2304
2019-05-14T08:42:34.062Z,40.3265
2019-05-14T08:43:39.791Z,41.0056
2019-05-14T08:44:47.937Z,41.2512
2019-05-14T08:45:53.312Z,40.8759
2019-05-14T08:46:58.436Z,39.8093
2019-05-14T08:48:02.317Z,40.1862
2019-05-14T08:49:05.340Z,40.2441
2019-05-14T08:50:09.116Z,45.2384
2019-05-14T08:51:12.393Z,43.4226
2019-05-14T08:52:18.969Z,43.9017
2019-05-14T08:53:22.334Z,44.1047
2019-05-14T08:54:25.335Z,42.5254
2019-05-14T08:55:29.666Z,40.0534
2019-05-14T08:56:33.305Z,38.7381
2019-05-14T08:57:38.611Z,40.0488
2019-05-14T08:58:42.323Z,39.3851
2019-05-14T08:59:45.337Z,38.2315
2019-05-14T09:00:48.479Z,40.5051
2019-05-14T09:02:01.792Z,39.5590
2019-05-14T09:02:59.327Z,38.9807
2019-05-14T09:04:02.305Z,37.6593
2019-05-14T09:05:05.502Z,39.2157
2019-05-14T09:06:10.367Z,40.5066
2019-05-14T09:07:13.341Z,38.0392
2019-05-14T09:08:18.957Z,36.6125
2019-05-14T09:09:22.325Z,37.5341
2019-05-14T09:10:25.366Z,35.5703
2019-05-14T09:11:35.026Z,35.6252
2019-05-14T09:12:38.617Z,34.8058
2019-05-14T09:13:42.355Z,36.7910
2019-05-14T09:14:45.324Z,36.2341
2019-05-14T09:15:48.928Z,36.6812
2019-05-14T09:16:52.358Z,35.8389
2019-05-14T09:17:55.314Z,34.8821
2019-05-14T09:18:58.278Z,34.8272
2019-05-14T09:20:06.735Z,33.4813
2019-05-14T09:21:09.296Z,34.5159
2019-05-14T09:22:12.373Z,34.7326
2019-05-14T09:23:15.296Z,33.8476
2019-05-14T09:24:18.377Z,34.2275
2019-05-14T09:25:21.292Z,34.9294
2019-05-14T09:26:24.325Z,35.7580
2019-05-14T09:27:29.246Z,34.6532
2019-05-14T09:28:32.303Z,34.1741
2019-05-14T09:29:35.335Z,34.3069
2019-05-14T09:30:38.333Z,34.0032
2019-05-14T09:31:41.342Z,34.9111
2019-05-14T09:32:44.354Z,33.6110
2019-05-14T09:33:49.480Z,32.7504
2019-05-14T09:34:52.322Z,33.6919
2019-05-14T09:36:09.554Z,34.2977
2019-05-14T09:37:03.354Z,34.1466
2019-05-14T09:38:08.510Z,33.9315
2019-05-14T09:39:12.257Z,33.5607
2019-05-14T09:40:14.381Z,32.9656
2019-05-14T09:41:18.549Z,33.1380
2019-05-14T09:42:21.286Z,35.1431
2019-05-14T09:43:24.346Z,35.9686
2019-05-14T09:44:29.317Z,34.0078
2019-05-14T09:45:32.319Z,33.9498
2019-05-14T09:46:35.351Z,32.1828
2019-05-14T09:47:38.736Z,31.8303
2019-05-14T09:48:42.279Z,30.9606
2019-05-14T09:49:45.310Z,31.6594
2019-05-14T09:50:48.977Z,31.0918
2019-05-14T09:51:52.318Z,30.6584
2019-05-14T09:52:55.336Z,32.3873
2019-05-14T09:53:58.926Z,30.1503
2019-05-14T09:55:02.339Z,32.3293
2019-05-14T09:56:05.359Z,31.2444
2019-05-14T09:57:08.495Z,31.3863
2019-05-14T09:58:11.311Z,33.3028
2019-05-14T09:59:14.316Z,32.6802
2019-05-14T10:00:18.683Z,31.3390
2019-05-14T10:01:22.355Z,31.1833
2019-05-14T10:02:25.316Z,31.3085
2019-05-14T10:03:27.312Z,31.4214
2019-05-14T10:04:30.361Z,32.7916
2019-05-14T10:05:33.274Z,30.2327
2019-05-14T10:06:39.015Z,32.1920
2019-05-14T10:07:42.291Z,31.0460
2019-05-14T10:08:45.321Z,30.3471
2019-05-14T10:09:49.184Z,30.9178
2019-05-14T10:10:52.310Z,30.8507
2019-05-14T10:11:55.337Z,28.6488
2019-05-14T10:13:01.350Z,29.6971
2019-05-14T10:14:05.328Z,29.7749
2019-05-14T10:15:08.843Z,29.4453
2019-05-14T10:16:12.320Z,28.1041
2019-05-14T10:17:15.358Z,28.9494
2019-05-14T10:18:19.039Z,29.0547
2019-05-14T10:19:22.314Z,27.3747
2019-05-14T10:20:40.238Z,27.5090
2019-05-14T10:21:33.311Z,28.8991
2019-05-14T10:22:36.369Z,27.4403
2019-05-14T10:23:39.280Z,28.7678
2019-05-14T10:24:42.317Z,30.7088
2019-05-14T10:25:45.346Z,29.2515
2019-05-14T10:26:49.156Z,28.6473
2019-05-14T10:27:52.367Z,28.9174
2019-05-14T10:28:54.307Z,29.7520
2019-05-14T10:29:58.859Z,30.7118
2019-05-14T10:31:03.808Z,30.2815
2019-05-14T10:32:08.737Z,28.9403
2019-05-14T10:33:15.082Z,29.7978
2019-05-14T10:34:19.228Z,32.2316
2019-05-14T10:35:22.301Z,32.8786
2019-05-14T10:36:25.283Z,33.5592
2019-05-14T10:37:28.792Z,32.8267
2019-05-14T10:38:32.329Z,32.1462
2019-05-14T10:39:35.352Z,30.4158
2019-05-14T10:40:38.701Z,31.2016
2019-05-14T10:41:42.335Z,30.8949
2019-05-14T10:42:44.358Z,31.6869
2019-05-14T10:43:49.736Z,31.2612
2019-05-14T10:44:53.285Z,31.1299
2019-05-14T10:45:58.001Z,32.0760
2019-05-14T10:47:01.322Z,32.7626
2019-05-14T10:48:04.351Z,32.5399
2019-05-14T10:49:19.996Z,31.6548
2019-05-14T10:50:15.331Z,30.1396
2019-05-14T10:51:18.354Z,30.3334
2019-05-14T10:52:23.313Z,29.9886
2019-05-14T10:53:25.377Z,32.2133
2019-05-14T10:54:29.268Z,32.1050
2019-05-14T10:55:32.317Z,32.1370
2019-05-14T10:56:35.278Z,32.7626
2019-05-14T10:57:38.305Z,31.5679
2019-05-14T10:58:41.348Z,30.5165
2019-05-14T10:59:44.300Z,30.7301
2019-05-14T11:00:49.309Z,30.3563
2019-05-14T11:01:54.352Z,29.8528
2019-05-14T11:02:57.329Z,30.5348
2019-05-14T11:04:00.314Z,29.6727
2019-05-14T11:05:03.301Z,28.9830
2019-05-14T11:06:06.333Z,29.6284
2019-05-14T11:07:09.314Z,29.9062
2019-05-14T11:08:12.314Z,31.5648
2019-05-14T11:09:15.304Z,32.6726
2019-05-14T11:10:19.523Z,33.8491
2019-05-14T11:11:22.286Z,33.1151
2019-05-14T11:12:25.357Z,33.6934
2019-05-14T11:13:29.242Z,32.9290
2019-05-14T11:14:32.362Z,33.6553
2019-05-14T11:15:35.336Z,31.8517
2019-05-14T11:16:41.790Z,30.9972
2019-05-14T11:17:45.267Z,30.8141
2019-05-14T11:18:49.744Z,31.8807
2019-05-14T11:19:53.361Z,31.8074
2019-05-14T11:21:16.171Z,31.9112
2019-05-14T11:22:04.318Z,31.7159
2019-05-14T11:23:08.979Z,31.2886
2019-05-14T11:24:12.329Z,31.5007
2019-05-14T11:25:15.313Z,33.1487
2019-05-14T11:26:18.427Z,32.4651
2019-05-14T11:27:22.297Z,32.8267
2019-05-14T11:28:25.267Z,31.4687
2019-05-14T11:29:29.580Z,31.1757
2019-05-14T11:30:33.315Z,32.3507
2019-05-14T11:31:38.872Z,32.4422
2019-05-14T11:32:42.321Z,31.0964
2019-05-14T11:33:45.306Z,30.6798
2019-05-14T11:34:48.341Z,32.2332
2019-05-14T11:35:51.306Z,32.1187
2019-05-14T11:36:54.324Z,32.3751
2019-05-14T11:37:58.866Z,32.5444
2019-05-14T11:39:04.018Z,31.4366
2019-05-14T11:40:08.743Z,31.6014
2019-05-14T11:41:12.337Z,32.5307
2019-05-14T11:42:15.306Z,32.5307
2019-05-14T11:43:18.341Z,31.7067
2019-05-14T11:44:21.301Z,31.1803
2019-05-14T11:45:23.305Z,32.6680
2019-05-14T11:46:39.977Z,31.5175
2019-05-14T11:47:34.319Z,33.2250
2019-05-14T11:48:38.948Z,33.8949
2019-05-14T11:49:42.349Z,35.4543
2019-05-14T11:50:45.324Z,33.2998
2019-05-14T11:52:00.722Z,34.4213
2019-05-14T11:52:58.331Z,34.1833
2019-05-14T11:54:01.285Z,33.4051
2019-05-14T11:55:04.334Z,33.6385
2019-05-14T11:56:08.629Z,34.4030
2019-05-14T11:57:12.307Z,32.7825
2019-05-14T11:58:15.379Z,33.2433
2019-05-14T11:59:18.969Z,31.9768
2019-05-14T12:00:25.719Z,31.7968
2019-05-14T12:01:29.787Z,31.5267
2019-05-14T12:02:33.267Z,32.7901
2019-05-14T12:03:39.043Z,30.6172
2019-05-14T12:04:42.317Z,32.1492
2019-05-14T12:05:45.279Z,32.2835
2019-05-14T12:06:48.288Z,30.7820
2019-05-14T12:07:51.290Z,31.4641
2019-05-14T12:08:54.298Z,30.9865
2019-05-14T12:09:57.346Z,29.5918
2019-05-14T12:11:00.332Z,30.0710
2019-05-14T12:12:03.279Z,29.3111
2019-05-14T12:13:08.402Z,31.3680
2019-05-14T12:14:12.340Z,30.4295
2019-05-14T12:15:15.297Z,32.5063
2019-05-14T12:16:18.328Z,30.7820
2019-05-14T12:17:21.388Z,32.1630
2019-05-14T12:18:24.298Z,32.5521
2019-05-14T12:19:28.371Z,32.3415
2019-05-14T12:20:31.352Z,33.3593
2019-05-14T12:21:34.308Z,31.5190
2019-05-14T12:22:39.356Z,31.0094
2019-05-14T12:23:42.323Z,32.9976
2019-05-14T12:24:45.336Z,33.2753
2019-05-14T12:25:49.063Z,32.2087
2019-05-14T12:26:52.290Z,32.9778
2019-05-14T12:27:55.309Z,32.2469
2019-05-14T12:28:59.409Z,29.3614
2019-05-14T12:30:01.338Z,30.6996
2019-05-14T12:31:04.303Z,29.4759
2019-05-14T12:32:12.804Z,30.9133
2019-05-14T12:33:15.311Z,32.3369
2019-05-14T12:34:18.595Z,30.8232
2019-05-14T12:35:21.316Z,31.9722
2019-05-14T12:36:24.308Z,32.0592
2019-05-14T12:37:28.941Z,32.4849
2019-05-14T12:38:32.266Z,33.9956
2019-05-14T12:39:35.252Z,34.8363
2019-05-14T12:40:38.435Z,34.7494
2019-05-14T12:41:41.293Z,34.8180
2019-05-14T12:42:44.299Z,34.3984
2019-05-14T12:43:47.330Z,34.9889
2019-05-14T12:44:50.315Z,34.7509
2019-05-14T12:45:53.361Z,34.7555
2019-05-14T12:46:58.592Z,34.5251
2019-05-14T12:48:02.309Z,33.2158
2019-05-14T12:49:05.315Z,30.2922
2019-05-14T12:50:09.367Z,30.5013
2019-05-14T12:51:12.346Z,29.4636